sensor_id;sensor_type;location;lat;lon;timestamp;pressure;altitude;pressure_sealevel;temperature;humidity
26043;BME280;13818;52.156;5.382;2023-04-21T00:02:23;101341.31;;;8.56;100.00
26043;BME280;13818;52.156;5.382;2023-04-21T00:04:50;101340.38;;;8.57;100.00
26043;BME280;13818;52.156;5.382;2023-04-21T00:07:17;101341.19;;;8.59;100.00
26043;BME280;13818;52.156;5.382;2023-04-21T00:09:44;101336.91;;;8.55;100.00
26043;BME280;13818;52.156;5.382;2023-04-21T00:12:11;101326.16;;;8.58;100.00
26043;BME280;13818;52.156;5.382;2023-04-21T00:14:39;101327.09;;;8.57;100.00
26043;BME280;13818;52.156;5.382;2023-04-21T00:17:05;101321.34;;;8.41;100.00
26043;BME280;13818;52.156;5.382;2023-04-21T00:19:32;101330.38;;;8.34;100.00
26043;BME280;13818;52.156;5.382;2023-04-21T00:21:59;101318.06;;;8.31;100.00
26043;BME280;13818;52.156;5.382;2023-04-21T00:24:25;101310.03;;;8.35;100.00
26043;BME280;13818;52.156;5.382;2023-04-21T00:26:52;101311.91;;;8.29;100.00
26043;BME280;13818;52.156;5.382;2023-04-21T00:29:18;101317.22;;;8.31;100.00
26043;BME280;13818;52.156;5.382;2023-04-21T00:31:46;101307.56;;;8.28;100.00
26043;BME280;13818;52.156;5.382;2023-04-21T00:34:13;101309.19;;;8.33;100.00
26043;BME280;13818;52.156;5.382;2023-04-21T00:36:39;101310.28;;;8.25;100.00
26043;BME280;13818;52.156;5.382;2023-04-21T00:39:06;101302.59;;;8.16;100.00
26043;BME280;13818;52.156;5.382;2023-04-21T00:41:33;101300.88;;;8.13;100.00
26043;BME280;13818;52.156;5.382;2023-04-21T00:44:01;101304.16;;;8.23;100.00
26043;BME280;13818;52.156;5.382;2023-04-21T00:46:28;101298.31;;;8.10;100.00
26043;BME280;13818;52.156;5.382;2023-04-21T00:48:56;101294.66;;;8.14;100.00
26043;BME280;13818;52.156;5.382;2023-04-21T00:51:23;101300.09;;;8.10;100.00
26043;BME280;13818;52.156;5.382;2023-04-21T00:53:50;101296.50;;;8.12;100.00
26043;BME280;13818;52.156;5.382;2023-04-21T00:56:16;101300.00;;;8.13;100.00
26043;BME280;13818;52.156;5.382;2023-04-21T00:58:44;101296.84;;;8.00;100.00
26043;BME280;13818;52.156;5.382;2023-04-21T01:01:12;101285.25;;;8.03;100.00
26043;BME280;13818;52.156;5.382;2023-04-21T01:03:38;101290.50;;;8.04;100.00
26043;BME280;13818;52.156;5.382;2023-04-21T01:06:07;101280.97;;;7.98;100.00
26043;BME280;13818;52.156;5.382;2023-04-21T01:08:34;101287.00;;;8.04;100.00
26043;BME280;13818;52.156;5.382;2023-04-21T01:11:08;101281.88;;;7.97;100.00
26043;BME280;13818;52.156;5.382;2023-04-21T01:13:34;101273.22;;;7.91;100.00
26043;BME280;13818;52.156;5.382;2023-04-21T01:16:01;101269.31;;;8.03;100.00
26043;BME280;13818;52.156;5.382;2023-04-21T01:18:28;101272.78;;;8.06;100.00
26043;BME280;13818;52.156;5.382;2023-04-21T01:20:56;101266.09;;;7.91;100.00
26043;BME280;13818;52.156;5.382;2023-04-21T01:23:24;101263.28;;;7.97;100.00
26043;BME280;13818;52.156;5.382;2023-04-21T01:25:52;101257.69;;;8.08;100.00
26043;BME280;13818;52.156;5.382;2023-04-21T01:28:21;101256.78;;;8.08;100.00
26043;BME280;13818;52.156;5.382;2023-04-21T01:30:48;101259.31;;;8.12;100.00
26043;BME280;13818;52.156;5.382;2023-04-21T01:33:15;101257.91;;;8.01;100.00
26043;BME280;13818;52.156;5.382;2023-04-21T01:35:43;101261.53;;;7.96;100.00
26043;BME280;13818;52.156;5.382;2023-04-21T01:38:09;101258.66;;;8.04;100.00
26043;BME280;13818;52.156;5.382;2023-04-21T01:40:38;101256.78;;;8.08;100.00
26043;BME280;13818;52.156;5.382;2023-04-21T01:43:06;101254.13;;;8.08;100.00
26043;BME280;13818;52.156;5.382;2023-04-21T01:45:33;101252.03;;;8.19;100.00
26043;BME280;13818;52.156;5.382;2023-04-21T01:48:00;101237.91;;;8.19;100.00
26043;BME280;13818;52.156;5.382;2023-04-21T01:50:26;101240.50;;;8.20;100.00
26043;BME280;13818;52.156;5.382;2023-04-21T01:52:53;101227.16;;;8.22;100.00
26043;BME280;13818;52.156;5.382;2023-04-21T01:55:19;101237.78;;;8.22;100.00
26043;BME280;13818;52.156;5.382;2023-04-21T01:57:47;101231.81;;;8.15;100.00
26043;BME280;13818;52.156;5.382;2023-04-21T02:00:14;101230.84;;;8.18;100.00
26043;BME280;13818;52.156;5.382;2023-04-21T02:02:41;101233.38;;;8.22;100.00
26043;BME280;13818;52.156;5.382;2023-04-21T02:05:07;101236.81;;;8.26;100.00
26043;BME280;13818;52.156;5.382;2023-04-21T02:07:34;101244.00;;;8.22;100.00
26043;BME280;13818;52.156;5.382;2023-04-21T02:10:01;101246.78;;;8.18;100.00
26043;BME280;13818;52.156;5.382;2023-04-21T02:12:27;101251.22;;;8.17;100.00
26043;BME280;13818;52.156;5.382;2023-04-21T02:14:55;101244.22;;;8.14;100.00
26043;BME280;13818;52.156;5.382;2023-04-21T02:17:22;101245.31;;;8.07;100.00
26043;BME280;13818;52.156;5.382;2023-04-21T02:19:48;101248.09;;;8.03;100.00
26043;BME280;13818;52.156;5.382;2023-04-21T02:22:15;101237.69;;;7.95;100.00
26043;BME280;13818;52.156;5.382;2023-04-21T02:24:42;101237.41;;;8.06;100.00
26043;BME280;13818;52.156;5.382;2023-04-21T02:27:08;101237.41;;;8.06;100.00
26043;BME280;13818;52.156;5.382;2023-04-21T02:29:35;101232.22;;;8.01;100.00
26043;BME280;13818;52.156;5.382;2023-04-21T02:32:02;101220.34;;;8.13;100.00
26043;BME280;13818;52.156;5.382;2023-04-21T02:34:29;101237.16;;;8.13;100.00
26043;BME280;13818;52.156;5.382;2023-04-21T02:36:56;101230.09;;;8.12;100.00
26043;BME280;13818;52.156;5.382;2023-04-21T02:39:24;101245.22;;;8.10;100.00
26043;BME280;13818;52.156;5.382;2023-04-21T02:41:50;101228.59;;;8.04;100.00
26043;BME280;13818;52.156;5.382;2023-04-21T02:44:17;101227.75;;;8.02;100.00
26043;BME280;13818;52.156;5.382;2023-04-21T02:46:43;101234.00;;;8.01;100.00
26043;BME280;13818;52.156;5.382;2023-04-21T02:49:11;101233.84;;;8.05;100.00
26043;BME280;13818;52.156;5.382;2023-04-21T02:51:38;101231.19;;;8.05;100.00
26043;BME280;13818;52.156;5.382;2023-04-21T02:54:04;101232.09;;;8.06;100.00
26043;BME280;13818;52.156;5.382;2023-04-21T02:56:31;101235.78;;;8.00;100.00
26043;BME280;13818;52.156;5.382;2023-04-21T02:58:58;101223.34;;;8.02;100.00
26043;BME280;13818;52.156;5.382;2023-04-21T03:01:25;101213.41;;;8.09;100.00
26043;BME280;13818;52.156;5.382;2023-04-21T03:03:51;101226.00;;;8.02;100.00
26043;BME280;13818;52.156;5.382;2023-04-21T03:06:19;101223.28;;;8.04;100.00
26043;BME280;13818;52.156;5.382;2023-04-21T03:08:46;101223.38;;;8.01;100.00
26043;BME280;13818;52.156;5.382;2023-04-21T03:11:12;101211.94;;;7.98;100.00
26043;BME280;13818;52.156;5.382;2023-04-21T03:13:39;101219.78;;;8.02;100.00
26043;BME280;13818;52.156;5.382;2023-04-21T03:16:05;101224.19;;;8.03;100.00
26043;BME280;13818;52.156;5.382;2023-04-21T03:18:33;101232.31;;;7.98;100.00
26043;BME280;13818;52.156;5.382;2023-04-21T03:21:00;101234.06;;;7.97;100.00
26043;BME280;13818;52.156;5.382;2023-04-21T03:23:28;101227.88;;;7.98;100.00
26043;BME280;13818;52.156;5.382;2023-04-21T03:25:54;101211.81;;;8.02;100.00
26043;BME280;13818;52.156;5.382;2023-04-21T03:28:20;101193.16;;;8.05;100.00
26043;BME280;13818;52.156;5.382;2023-04-21T03:30:47;101215.09;;;8.11;100.00
26043;BME280;13818;52.156;5.382;2023-04-21T03:33:13;101212.38;;;8.13;100.00
26043;BME280;13818;52.156;5.382;2023-04-21T03:35:41;101220.41;;;8.11;100.00
26043;BME280;13818;52.156;5.382;2023-04-21T03:38:07;101197.41;;;8.10;100.00
26043;BME280;13818;52.156;5.382;2023-04-21T03:40:36;101218.41;;;8.18;100.00
26043;BME280;13818;52.156;5.382;2023-04-21T03:43:02;101199.94;;;8.15;100.00
26043;BME280;13818;52.156;5.382;2023-04-21T03:45:29;101212.19;;;8.19;100.00
26043;BME280;13818;52.156;5.382;2023-04-21T03:47:55;101210.00;;;8.04;100.00
26043;BME280;13818;52.156;5.382;2023-04-21T03:50:22;101208.09;;;8.09;100.00
26043;BME280;13818;52.156;5.382;2023-04-21T03:52:49;101190.56;;;8.03;100.00
26043;BME280;13818;52.156;5.382;2023-04-21T03:55:16;101193.94;;;8.08;100.00
26043;BME280;13818;52.156;5.382;2023-04-21T03:57:44;101183.91;;;8.18;100.00
26043;BME280;13818;52.156;5.382;2023-04-21T04:00:11;101176.16;;;8.10;100.00
26043;BME280;13818;52.156;5.382;2023-04-21T04:02:38;101196.56;;;8.10;100.00
26043;BME280;13818;52.156;5.382;2023-04-21T04:05:05;101187.88;;;8.05;100.00
26043;BME280;13818;52.156;5.382;2023-04-21T04:07:32;101192.09;;;8.10;100.00
26043;BME280;13818;52.156;5.382;2023-04-21T04:10:01;101199.22;;;8.10;100.00
26043;BME280;13818;52.156;5.382;2023-04-21T04:12:27;101200.25;;;8.04;100.00
26043;BME280;13818;52.156;5.382;2023-04-21T04:14:55;101203.88;;;8.02;100.00
26043;BME280;13818;52.156;5.382;2023-04-21T04:17:22;101179.84;;;8.06;100.00
26043;BME280;13818;52.156;5.382;2023-04-21T04:19:48;101174.59;;;8.05;100.00
26043;BME280;13818;52.156;5.382;2023-04-21T04:22:14;101167.66;;;7.99;100.00
26043;BME280;13818;52.156;5.382;2023-04-21T04:24:41;101179.13;;;8.01;100.00
26043;BME280;13818;52.156;5.382;2023-04-21T04:27:09;101182.69;;;8.00;100.00
26043;BME280;13818;52.156;5.382;2023-04-21T04:29:38;101172.00;;;8.02;100.00
26043;BME280;13818;52.156;5.382;2023-04-21T04:32:06;101185.09;;;8.09;100.00
26043;BME280;13818;52.156;5.382;2023-04-21T04:34:36;101186.25;;;7.99;100.00
26043;BME280;13818;52.156;5.382;2023-04-21T04:37:03;101181.53;;;8.09;100.00
26043;BME280;13818;52.156;5.382;2023-04-21T04:39:31;101181.59;;;8.07;100.00
26043;BME280;13818;52.156;5.382;2023-04-21T04:41:58;101185.88;;;8.11;100.00
26043;BME280;13818;52.156;5.382;2023-04-21T04:44:25;101187.22;;;7.96;100.00
26043;BME280;13818;52.156;5.382;2023-04-21T04:46:52;101193.25;;;8.02;100.00
26043;BME280;13818;52.156;5.382;2023-04-21T04:49:20;101186.00;;;8.07;100.00
26043;BME280;13818;52.156;5.382;2023-04-21T04:51:46;101184.31;;;8.04;100.00
26043;BME280;13818;52.156;5.382;2023-04-21T04:54:13;101179.56;;;8.15;100.00
26043;BME280;13818;52.156;5.382;2023-04-21T04:56:39;101176.03;;;8.15;100.00
26043;BME280;13818;52.156;5.382;2023-04-21T04:59:06;101169.81;;;8.16;100.00
26043;BME280;13818;52.156;5.382;2023-04-21T05:01:32;101180.69;;;8.08;100.00
26043;BME280;13818;52.156;5.382;2023-04-21T05:03:59;101193.72;;;8.16;100.00
26043;BME280;13818;52.156;5.382;2023-04-21T05:06:27;101183.09;;;8.16;100.00
26043;BME280;13818;52.156;5.382;2023-04-21T05:08:53;101189.97;;;8.23;100.00
26043;BME280;13818;52.156;5.382;2023-04-21T05:11:20;101184.59;;;8.25;100.00
26043;BME280;13818;52.156;5.382;2023-04-21T05:13:46;101186.41;;;8.23;100.00
26043;BME280;13818;52.156;5.382;2023-04-21T05:16:15;101188.66;;;8.37;100.00
26043;BME280;13818;52.156;5.382;2023-04-21T05:18:41;101203.03;;;8.29;100.00
26043;BME280;13818;52.156;5.382;2023-04-21T05:21:09;101191.41;;;8.34;100.00
26043;BME280;13818;52.156;5.382;2023-04-21T05:23:37;101194.00;;;8.35;100.00
26043;BME280;13818;52.156;5.382;2023-04-21T05:26:04;101208.13;;;8.37;100.00
26043;BME280;13818;52.156;5.382;2023-04-21T05:28:30;101203.81;;;8.33;100.00
26043;BME280;13818;52.156;5.382;2023-04-21T05:30:57;101201.59;;;8.49;100.00
26043;BME280;13818;52.156;5.382;2023-04-21T05:33:23;101200.78;;;8.45;100.00
26043;BME280;13818;52.156;5.382;2023-04-21T05:35:52;101195.41;;;8.49;100.00
26043;BME280;13818;52.156;5.382;2023-04-21T05:38:18;101196.13;;;8.54;100.00
26043;BME280;13818;52.156;5.382;2023-04-21T05:40:53;101208.44;;;8.56;100.00
26043;BME280;13818;52.156;5.382;2023-04-21T05:43:19;101208.50;;;8.55;100.00
26043;BME280;13818;52.156;5.382;2023-04-21T05:45:46;101221.63;;;8.59;100.00
26043;BME280;13818;52.156;5.382;2023-04-21T05:48:13;101226.78;;;8.64;100.00
26043;BME280;13818;52.156;5.382;2023-04-21T05:50:39;101224.91;;;8.68;100.00
26043;BME280;13818;52.156;5.382;2023-04-21T05:53:07;101231.88;;;8.72;100.00
26043;BME280;13818;52.156;5.382;2023-04-21T05:55:34;101227.31;;;8.75;100.00
26043;BME280;13818;52.156;5.382;2023-04-21T05:58:03;101220.13;;;8.79;100.00
26043;BME280;13818;52.156;5.382;2023-04-21T06:00:30;101230.63;;;8.82;100.00
26043;BME280;13818;52.156;5.382;2023-04-21T06:02:57;101235.09;;;8.82;100.00
26043;BME280;13818;52.156;5.382;2023-04-21T06:05:24;101217.28;;;8.84;100.00
26043;BME280;13818;52.156;5.382;2023-04-21T06:07:50;101209.22;;;8.87;100.00
26043;BME280;13818;52.156;5.382;2023-04-21T06:10:17;101225.06;;;8.90;100.00
26043;BME280;13818;52.156;5.382;2023-04-21T06:12:44;101230.38;;;8.90;100.00
26043;BME280;13818;52.156;5.382;2023-04-21T06:15:12;101220.69;;;8.89;100.00
26043;BME280;13818;52.156;5.382;2023-04-21T06:17:38;101213.47;;;8.92;100.00
26043;BME280;13818;52.156;5.382;2023-04-21T06:20:07;101212.53;;;8.93;100.00
26043;BME280;13818;52.156;5.382;2023-04-21T06:22:33;101214.28;;;8.94;100.00
26043;BME280;13818;52.156;5.382;2023-04-21T06:25:00;101209.75;;;8.98;100.00
26043;BME280;13818;52.156;5.382;2023-04-21T06:27:26;101224.00;;;8.95;100.00
26043;BME280;13818;52.156;5.382;2023-04-21T06:29:53;101217.88;;;8.93;100.00
26043;BME280;13818;52.156;5.382;2023-04-21T06:32:22;101216.94;;;8.94;100.00
26043;BME280;13818;52.156;5.382;2023-04-21T06:34:48;101217.56;;;9.03;100.00
26043;BME280;13818;52.156;5.382;2023-04-21T06:37:15;101205.78;;;9.10;100.00
26043;BME280;13818;52.156;5.382;2023-04-21T06:39:42;101218.03;;;9.16;100.00
26043;BME280;13818;52.156;5.382;2023-04-21T06:42:08;101211.03;;;9.13;100.00
26043;BME280;13818;52.156;5.382;2023-04-21T06:44:34;101222.88;;;9.30;100.00
26043;BME280;13818;52.156;5.382;2023-04-21T06:47:02;101215.31;;;9.17;100.00
26043;BME280;13818;52.156;5.382;2023-04-21T06:49:30;101209.22;;;9.14;100.00
26043;BME280;13818;52.156;5.382;2023-04-21T06:51:58;101219.44;;;9.26;100.00
26043;BME280;13818;52.156;5.382;2023-04-21T06:54:24;101208.66;;;9.31;100.00
26043;BME280;13818;52.156;5.382;2023-04-21T06:56:50;101203.06;;;9.38;100.00
26043;BME280;13818;52.156;5.382;2023-04-21T06:59:17;101196.00;;;9.37;100.00
26043;BME280;13818;52.156;5.382;2023-04-21T07:01:43;101204.03;;;9.61;100.00
26043;BME280;13818;52.156;5.382;2023-04-21T07:04:13;101196.56;;;9.71;100.00
26043;BME280;13818;52.156;5.382;2023-04-21T07:06:41;101201.19;;;9.89;100.00
26043;BME280;13818;52.156;5.382;2023-04-21T07:09:08;101206.41;;;9.92;100.00
26043;BME280;13818;52.156;5.382;2023-04-21T07:11:34;101208.94;;;10.19;100.00
26043;BME280;13818;52.156;5.382;2023-04-21T07:14:01;101197.53;;;10.39;100.00
26043;BME280;13818;52.156;5.382;2023-04-21T07:16:27;101206.31;;;11.29;100.00
26043;BME280;13818;52.156;5.382;2023-04-21T07:18:54;101214.22;;;11.71;100.00
26043;BME280;13818;52.156;5.382;2023-04-21T07:21:21;101215.19;;;11.89;100.00
26043;BME280;13818;52.156;5.382;2023-04-21T07:23:49;101214.28;;;12.48;100.00
26043;BME280;13818;52.156;5.382;2023-04-21T07:26:16;101204.13;;;12.37;100.00
26043;BME280;13818;52.156;5.382;2023-04-21T07:28:43;101202.00;;;11.86;100.00
26043;BME280;13818;52.156;5.382;2023-04-21T07:31:09;101210.03;;;11.66;100.00
26043;BME280;13818;52.156;5.382;2023-04-21T07:33:36;101208.25;;;11.25;100.00
26043;BME280;13818;52.156;5.382;2023-04-21T07:36:03;101214.75;;;10.97;100.00
26043;BME280;13818;52.156;5.382;2023-04-21T07:38:30;101203.84;;;11.03;100.00
26043;BME280;13818;52.156;5.382;2023-04-21T07:40:57;101222.25;;;10.87;100.00
26043;BME280;13818;52.156;5.382;2023-04-21T07:43:24;101213.84;;;10.76;100.00
26043;BME280;13818;52.156;5.382;2023-04-21T07:45:51;101214.91;;;10.72;100.00
26043;BME280;13818;52.156;5.382;2023-04-21T07:48:18;101212.06;;;10.54;100.00
26043;BME280;13818;52.156;5.382;2023-04-21T07:50:44;101206.03;;;10.71;100.00
26043;BME280;13818;52.156;5.382;2023-04-21T07:53:11;101206.66;;;11.21;100.00
26043;BME280;13818;52.156;5.382;2023-04-21T07:55:37;101203.47;;;11.73;100.00
26043;BME280;13818;52.156;5.382;2023-04-21T07:58:05;101211.84;;;12.05;100.00
26043;BME280;13818;52.156;5.382;2023-04-21T08:00:34;101202.25;;;11.80;100.00
26043;BME280;13818;52.156;5.382;2023-04-21T08:03:00;101202.00;;;11.66;100.00
26043;BME280;13818;52.156;5.382;2023-04-21T08:05:27;101195.50;;;11.32;100.00
26043;BME280;13818;52.156;5.382;2023-04-21T08:07:55;101199.41;;;11.64;100.00
26043;BME280;13818;52.156;5.382;2023-04-21T08:10:22;101196.75;;;11.64;100.00
26043;BME280;13818;52.156;5.382;2023-04-21T08:12:48;101181.00;;;11.58;100.00
26043;BME280;13818;52.156;5.382;2023-04-21T08:15:16;101197.47;;;11.68;100.00
26043;BME280;13818;52.156;5.382;2023-04-21T08:17:42;101203.94;;;11.62;100.00
26043;BME280;13818;52.156;5.382;2023-04-21T08:20:10;101198.38;;;11.48;100.00
26043;BME280;13818;52.156;5.382;2023-04-21T08:22:37;101193.00;;;11.68;100.00
26043;BME280;13818;52.156;5.382;2023-04-21T08:25:04;101199.22;;;11.69;100.00
26043;BME280;13818;52.156;5.382;2023-04-21T08:27:31;101196.97;;;12.18;100.00
26043;BME280;13818;52.156;5.382;2023-04-21T08:29:58;101199.34;;;12.80;100.00
26043;BME280;13818;52.156;5.382;2023-04-21T08:32:26;101198.47;;;12.80;100.00
26043;BME280;13818;52.156;5.382;2023-04-21T08:34:53;101189.91;;;12.91;100.00
26043;BME280;13818;52.156;5.382;2023-04-21T08:37:20;101201.47;;;12.74;100.00
26043;BME280;13818;52.156;5.382;2023-04-21T08:39:47;101202.13;;;12.60;100.00
26043;BME280;13818;52.156;5.382;2023-04-21T08:42:16;101199.56;;;12.01;100.00
26043;BME280;13818;52.156;5.382;2023-04-21T08:44:43;101203.97;;;12.02;100.00
26043;BME280;13818;52.156;5.382;2023-04-21T08:47:11;101209.78;;;11.91;100.00
26043;BME280;13818;52.156;5.382;2023-04-21T08:49:41;101208.91;;;11.91;100.00
26043;BME280;13818;52.156;5.382;2023-04-21T08:52:10;101210.81;;;12.08;100.00
26043;BME280;13818;52.156;5.382;2023-04-21T08:54:37;101206.56;;;12.23;100.00
26043;BME280;13818;52.156;5.382;2023-04-21T08:57:04;101207.09;;;12.12;100.00
26043;BME280;13818;52.156;5.382;2023-04-21T08:59:30;101195.69;;;12.08;100.00
26043;BME280;13818;52.156;5.382;2023-04-21T09:02:10;101202.69;;;11.90;100.00
26043;BME280;13818;52.156;5.382;2023-04-21T09:04:39;101197.69;;;12.03;100.00
26043;BME280;13818;52.156;5.382;2023-04-21T09:07:06;101203.56;;;11.91;100.00
26043;BME280;13818;52.156;5.382;2023-04-21T09:09:38;101195.31;;;12.35;100.00
26043;BME280;13818;52.156;5.382;2023-04-21T09:12:16;101200.09;;;12.28;100.00
26043;BME280;13818;52.156;5.382;2023-04-21T09:14:43;101200.72;;;12.33;100.00
26043;BME280;13818;52.156;5.382;2023-04-21T09:17:10;101199.38;;;12.61;100.00
26043;BME280;13818;52.156;5.382;2023-04-21T09:19:36;101205.28;;;12.68;100.00
26043;BME280;13818;52.156;5.382;2023-04-21T09:22:04;101199.13;;;12.48;100.00
26043;BME280;13818;52.156;5.382;2023-04-21T09:24:31;101195.81;;;12.43;100.00
26043;BME280;13818;52.156;5.382;2023-04-21T09:27:02;101190.34;;;12.64;100.00
26043;BME280;13818;52.156;5.382;2023-04-21T09:29:28;101196.06;;;12.93;100.00
26043;BME280;13818;52.156;5.382;2023-04-21T09:31:55;101194.56;;;12.50;100.00
26043;BME280;13818;52.156;5.382;2023-04-21T09:34:22;101199.97;;;12.85;100.00
26043;BME280;13818;52.156;5.382;2023-04-21T09:36:58;101195.44;;;13.05;100.00
26043;BME280;13818;52.156;5.382;2023-04-21T09:39:26;101196.91;;;13.11;100.00
26043;BME280;13818;52.156;5.382;2023-04-21T09:41:53;101198.88;;;13.25;100.00
26043;BME280;13818;52.156;5.382;2023-04-21T09:44:21;101202.50;;;12.89;100.00
26043;BME280;13818;52.156;5.382;2023-04-21T09:46:49;101188.03;;;12.93;100.00
26043;BME280;13818;52.156;5.382;2023-04-21T09:49:16;101189.47;;;13.17;100.00
26043;BME280;13818;52.156;5.382;2023-04-21T09:51:44;101173.94;;;13.24;100.00
26043;BME280;13818;52.156;5.382;2023-04-21T09:54:15;101178.75;;;13.00;100.00
26043;BME280;13818;52.156;5.382;2023-04-21T09:56:47;101176.53;;;12.91;100.00
26043;BME280;13818;52.156;5.382;2023-04-21T09:59:18;101174.31;;;12.81;100.00
26043;BME280;13818;52.156;5.382;2023-04-21T10:01:47;101159.53;;;12.92;100.00
26043;BME280;13818;52.156;5.382;2023-04-21T10:04:16;101179.13;;;12.75;100.00
26043;BME280;13818;52.156;5.382;2023-04-21T10:06:45;101178.88;;;12.79;100.00
26043;BME280;13818;52.156;5.382;2023-04-21T10:09:13;101171.88;;;12.94;100.00
26043;BME280;13818;52.156;5.382;2023-04-21T10:11:41;101167.47;;;13.11;100.00
26043;BME280;13818;52.156;5.382;2023-04-21T10:14:09;101186.69;;;13.19;100.00
26043;BME280;13818;52.156;5.382;2023-04-21T10:16:36;101172.81;;;13.28;100.00
26043;BME280;13818;52.156;5.382;2023-04-21T10:19:21;101167.06;;;13.36;100.00
26043;BME280;13818;52.156;5.382;2023-04-21T10:21:48;101174.97;;;13.22;100.00
26043;BME280;13818;52.156;5.382;2023-04-21T10:24:15;101171.47;;;13.55;100.00
26043;BME280;13818;52.156;5.382;2023-04-21T10:26:43;101161.66;;;13.71;100.00
26043;BME280;13818;52.156;5.382;2023-04-21T10:29:11;101161.84;;;13.68;100.00
26043;BME280;13818;52.156;5.382;2023-04-21T10:31:49;101169.22;;;13.47;100.00
26043;BME280;13818;52.156;5.382;2023-04-21T10:34:21;101159.66;;;13.24;100.00
26043;BME280;13818;52.156;5.382;2023-04-21T10:37:12;101163.13;;;13.26;100.00
26043;BME280;13818;52.156;5.382;2023-04-21T10:39:45;101181.75;;;13.11;100.00
26043;BME280;13818;52.156;5.382;2023-04-21T10:42:23;101163.25;;;13.42;100.00
26043;BME280;13818;52.156;5.382;2023-04-21T10:47:39;101163.31;;;13.23;100.00
26043;BME280;13818;52.156;5.382;2023-04-21T10:50:14;101160.94;;;13.52;100.00
26043;BME280;13818;52.156;5.382;2023-04-21T10:52:46;101163.16;;;13.43;100.00
26043;BME280;13818;52.156;5.382;2023-04-21T10:55:13;101147.94;;;13.44;100.00
26043;BME280;13818;52.156;5.382;2023-04-21T10:57:43;101145.22;;;13.61;100.00
26043;BME280;13818;52.156;5.382;2023-04-21T11:00:14;101145.50;;;13.57;100.00
26043;BME280;13818;52.156;5.382;2023-04-21T11:02:41;101151.19;;;13.15;100.00
26043;BME280;13818;52.156;5.382;2023-04-21T11:05:08;101152.94;;;13.16;100.00
26043;BME280;13818;52.156;5.382;2023-04-21T11:07:35;101134.31;;;13.48;100.00
26043;BME280;13818;52.156;5.382;2023-04-21T11:10:03;101130.09;;;13.44;100.00
26043;BME280;13818;52.156;5.382;2023-04-21T11:12:31;101123.22;;;13.72;100.00
26043;BME280;13818;52.156;5.382;2023-04-21T11:14:58;101123.56;;;13.98;100.00
26043;BME280;13818;52.156;5.382;2023-04-21T11:17:26;101113.56;;;14.02;100.00
26043;BME280;13818;52.156;5.382;2023-04-21T11:19:54;101116.22;;;14.02;100.00
26043;BME280;13818;52.156;5.382;2023-04-21T11:22:23;101121.34;;;13.74;100.00
26043;BME280;13818;52.156;5.382;2023-04-21T11:24:53;101117.06;;;13.70;100.00
26043;BME280;13818;52.156;5.382;2023-04-21T11:27:20;101132.72;;;13.78;100.00
26043;BME280;13818;52.156;5.382;2023-04-21T11:29:48;101119.66;;;13.56;100.00
26043;BME280;13818;52.156;5.382;2023-04-21T11:32:15;101111.56;;;13.40;100.00
26043;BME280;13818;52.156;5.382;2023-04-21T11:34:43;101099.75;;;13.44;100.00
26043;BME280;13818;52.156;5.382;2023-04-21T11:37:13;101104.22;;;13.77;100.00
26043;BME280;13818;52.156;5.382;2023-04-21T11:39:40;101113.03;;;13.63;100.00
26043;BME280;13818;52.156;5.382;2023-04-21T11:42:08;101103.81;;;13.51;100.00
26043;BME280;13818;52.156;5.382;2023-04-21T11:44:37;101108.56;;;13.46;100.00
26043;BME280;13818;52.156;5.382;2023-04-21T11:47:14;101091.94;;;13.73;100.00
26043;BME280;13818;52.156;5.382;2023-04-21T11:49:51;101105.75;;;13.65;100.00
26043;BME280;13818;52.156;5.382;2023-04-21T11:52:22;101091.50;;;13.96;100.00
26043;BME280;13818;52.156;5.382;2023-04-21T11:54:53;101086.06;;;14.14;100.00
26043;BME280;13818;52.156;5.382;2023-04-21T11:57:21;101079.56;;;14.18;100.00
26043;BME280;13818;52.156;5.382;2023-04-21T11:59:48;101073.09;;;14.22;100.00
26043;BME280;13818;52.156;5.382;2023-04-21T12:02:21;101071.84;;;14.44;100.00
26043;BME280;13818;52.156;5.382;2023-04-21T12:04:57;101063.13;;;14.24;100.00
26043;BME280;13818;52.156;5.382;2023-04-21T12:07:25;101087.69;;;14.16;100.00
26043;BME280;13818;52.156;5.382;2023-04-21T12:09:52;101067.38;;;14.28;100.00
26043;BME280;13818;52.156;5.382;2023-04-21T12:12:20;101071.06;;;14.26;100.00
26043;BME280;13818;52.156;5.382;2023-04-21T12:14:48;101055.31;;;14.36;100.00
26043;BME280;13818;52.156;5.382;2023-04-21T12:17:15;101040.16;;;14.51;100.00
26043;BME280;13818;52.156;5.382;2023-04-21T12:19:41;101051.91;;;14.48;100.00
26043;BME280;13818;52.156;5.382;2023-04-21T12:22:11;101058.31;;;14.45;100.00
26043;BME280;13818;52.156;5.382;2023-04-21T12:24:37;101053.56;;;14.51;100.00
26043;BME280;13818;52.156;5.382;2023-04-21T12:27:06;101040.03;;;14.52;100.00
26043;BME280;13818;52.156;5.382;2023-04-21T12:29:33;101056.44;;;14.78;100.00
26043;BME280;13818;52.156;5.382;2023-04-21T12:32:02;101060.34;;;14.72;100.00
26043;BME280;13818;52.156;5.382;2023-04-21T12:34:28;101059.50;;;14.56;100.00
26043;BME280;13818;52.156;5.382;2023-04-21T12:36:55;101038.19;;;14.69;100.00
26043;BME280;13818;52.156;5.382;2023-04-21T12:39:23;101022.31;;;14.49;100.00
26043;BME280;13818;52.156;5.382;2023-04-21T12:41:49;101023.88;;;14.54;100.00
26043;BME280;13818;52.156;5.382;2023-04-21T12:44:16;101016.94;;;14.80;100.00
26043;BME280;13818;52.156;5.382;2023-04-21T12:46:42;101017.25;;;14.75;100.00
26043;BME280;13818;52.156;5.382;2023-04-21T12:49:09;101010.72;;;14.79;100.00
26043;BME280;13818;52.156;5.382;2023-04-21T12:51:35;101023.88;;;14.99;100.00